Terminal Aerodrome Forecast
Issued by NWS

Home | Current Version | Previous Version | Text Only | Print | Product List | Glossary On
Versions: 1 2 3 4 5 6 7 8 9 10 11 12 13
336
FTUS44 KEPZ 200133 AAA
TAFTCS
TAF AMD
KTCS 200133Z 2002/2024 26013KT P6SM VCSH BKN050 BKN120
     FM200300 26009KT P6SM FEW050 SCT150
     FM200906 31008KT P6SM FEW050 SCT150
     FM201800 06007KT P6SM FEW100=

USA.gov is the U.S. government's official web portal to all federal, state and local government web resources and services.